sensor_id;sensor_type;location;lat;lon;timestamp;temperature;humidity
60717;DHT22;46566;52.700;6.192;2023-06-24T00:00:05;19.20;99.90
60717;DHT22;46566;52.700;6.192;2023-06-24T00:02:34;19.20;99.90
60717;DHT22;46566;52.700;6.192;2023-06-24T00:05:02;19.10;99.90
60717;DHT22;46566;52.700;6.192;2023-06-24T00:07:29;19.10;99.90
60717;DHT22;46566;52.700;6.192;2023-06-24T00:09:55;19.00;99.90
60717;DHT22;46566;52.700;6.192;2023-06-24T00:12:21;18.90;99.90
60717;DHT22;46566;52.700;6.192;2023-06-24T00:14:47;18.70;99.90
60717;DHT22;46566;52.700;6.192;2023-06-24T00:17:13;18.70;99.90
60717;DHT22;46566;52.700;6.192;2023-06-24T00:19:39;18.60;99.90
60717;DHT22;46566;52.700;6.192;2023-06-24T00:22:05;18.50;99.90
60717;DHT22;46566;52.700;6.192;2023-06-24T00:24:32;18.50;99.90
60717;DHT22;46566;52.700;6.192;2023-06-24T00:26:57;18.50;99.90
60717;DHT22;46566;52.700;6.192;2023-06-24T00:29:23;18.50;99.90
60717;DHT22;46566;52.700;6.192;2023-06-24T00:31:49;18.50;99.90
60717;DHT22;46566;52.700;6.192;2023-06-24T00:34:14;18.40;99.90
60717;DHT22;46566;52.700;6.192;2023-06-24T00:36:40;18.40;99.90
60717;DHT22;46566;52.700;6.192;2023-06-24T00:39:06;18.40;99.90
60717;DHT22;46566;52.700;6.192;2023-06-24T00:41:32;18.40;99.90
60717;DHT22;46566;52.700;6.192;2023-06-24T00:43:59;18.40;99.90
60717;DHT22;46566;52.700;6.192;2023-06-24T00:46:26;18.40;99.90
60717;DHT22;46566;52.700;6.192;2023-06-24T00:48:56;18.40;99.90
60717;DHT22;46566;52.700;6.192;2023-06-24T00:51:24;18.40;99.90
60717;DHT22;46566;52.700;6.192;2023-06-24T00:53:53;18.50;99.90
60717;DHT22;46566;52.700;6.192;2023-06-24T00:56:21;18.50;99.90
60717;DHT22;46566;52.700;6.192;2023-06-24T00:58:47;18.50;99.90
60717;DHT22;46566;52.700;6.192;2023-06-24T01:01:15;18.50;99.90
60717;DHT22;46566;52.700;6.192;2023-06-24T01:03:41;18.50;99.90
60717;DHT22;46566;52.700;6.192;2023-06-24T01:06:09;18.50;99.90
60717;DHT22;46566;52.700;6.192;2023-06-24T01:08:36;18.50;99.90
60717;DHT22;46566;52.700;6.192;2023-06-24T01:11:01;18.40;99.90
60717;DHT22;46566;52.700;6.192;2023-06-24T01:13:27;18.40;99.90
60717;DHT22;46566;52.700;6.192;2023-06-24T01:15:53;18.40;99.90
60717;DHT22;46566;52.700;6.192;2023-06-24T01:24:07;18.40;99.90
60717;DHT22;46566;52.700;6.192;2023-06-24T01:29:37;18.40;99.90
60717;DHT22;46566;52.700;6.192;2023-06-24T01:32:27;18.40;99.90
60717;DHT22;46566;52.700;6.192;2023-06-24T01:35:02;18.40;99.90
60717;DHT22;46566;52.700;6.192;2023-06-24T01:37:37;18.30;99.90
60717;DHT22;46566;52.700;6.192;2023-06-24T01:40:11;18.30;99.90
60717;DHT22;46566;52.700;6.192;2023-06-24T01:42:41;18.30;99.90
60717;DHT22;46566;52.700;6.192;2023-06-24T01:45:10;18.30;99.90
60717;DHT22;46566;52.700;6.192;2023-06-24T01:47:38;18.30;99.90
60717;DHT22;46566;52.700;6.192;2023-06-24T01:50:09;18.20;99.90
60717;DHT22;46566;52.700;6.192;2023-06-24T01:52:35;18.20;99.90
60717;DHT22;46566;52.700;6.192;2023-06-24T01:55:04;18.20;99.90
60717;DHT22;46566;52.700;6.192;2023-06-24T01:57:33;18.20;99.90
60717;DHT22;46566;52.700;6.192;2023-06-24T02:00:01;18.20;99.90
60717;DHT22;46566;52.700;6.192;2023-06-24T02:02:29;18.20;99.90
60717;DHT22;46566;52.700;6.192;2023-06-24T02:04:56;18.20;99.90
60717;DHT22;46566;52.700;6.192;2023-06-24T02:07:23;18.10;99.90
60717;DHT22;46566;52.700;6.192;2023-06-24T02:09:51;18.20;99.90
60717;DHT22;46566;52.700;6.192;2023-06-24T02:12:17;18.10;99.90
60717;DHT22;46566;52.700;6.192;2023-06-24T02:14:44;18.00;99.90
60717;DHT22;46566;52.700;6.192;2023-06-24T02:17:11;18.00;99.90
60717;DHT22;46566;52.700;6.192;2023-06-24T02:19:38;18.00;99.90
60717;DHT22;46566;52.700;6.192;2023-06-24T02:22:05;18.00;99.90
60717;DHT22;46566;52.700;6.192;2023-06-24T02:24:36;17.90;99.90
60717;DHT22;46566;52.700;6.192;2023-06-24T02:27:03;17.90;99.90
60717;DHT22;46566;52.700;6.192;2023-06-24T02:29:30;17.80;99.90
60717;DHT22;46566;52.700;6.192;2023-06-24T02:31:57;17.80;99.90
60717;DHT22;46566;52.700;6.192;2023-06-24T02:34:23;17.80;99.90
60717;DHT22;46566;52.700;6.192;2023-06-24T02:36:49;17.70;99.90
60717;DHT22;46566;52.700;6.192;2023-06-24T02:39:15;17.70;99.90
60717;DHT22;46566;52.700;6.192;2023-06-24T02:41:41;17.70;99.90
60717;DHT22;46566;52.700;6.192;2023-06-24T02:44:07;17.70;99.90
60717;DHT22;46566;52.700;6.192;2023-06-24T02:46:35;17.60;99.90
60717;DHT22;46566;52.700;6.192;2023-06-24T02:49:02;17.60;99.90
60717;DHT22;46566;52.700;6.192;2023-06-24T02:51:29;17.50;99.90
60717;DHT22;46566;52.700;6.192;2023-06-24T02:53:56;17.50;99.90
60717;DHT22;46566;52.700;6.192;2023-06-24T02:56:35;17.50;99.90
60717;DHT22;46566;52.700;6.192;2023-06-24T02:59:02;17.40;99.90
60717;DHT22;46566;52.700;6.192;2023-06-24T03:01:28;17.40;99.90
60717;DHT22;46566;52.700;6.192;2023-06-24T03:03:56;17.30;99.90
60717;DHT22;46566;52.700;6.192;2023-06-24T03:06:22;17.20;99.90
60717;DHT22;46566;52.700;6.192;2023-06-24T03:08:49;17.10;99.90
60717;DHT22;46566;52.700;6.192;2023-06-24T03:11:17;17.10;99.90
60717;DHT22;46566;52.700;6.192;2023-06-24T03:13:43;17.10;99.90
60717;DHT22;46566;52.700;6.192;2023-06-24T03:16:32;17.10;99.90
60717;DHT22;46566;52.700;6.192;2023-06-24T03:19:10;17.10;99.90
60717;DHT22;46566;52.700;6.192;2023-06-24T03:21:36;17.10;99.90
60717;DHT22;46566;52.700;6.192;2023-06-24T03:24:07;17.10;99.90
60717;DHT22;46566;52.700;6.192;2023-06-24T03:26:36;17.10;99.90
60717;DHT22;46566;52.700;6.192;2023-06-24T03:29:04;17.00;99.90
60717;DHT22;46566;52.700;6.192;2023-06-24T03:31:31;17.00;99.90
60717;DHT22;46566;52.700;6.192;2023-06-24T03:33:59;16.90;99.90
60717;DHT22;46566;52.700;6.192;2023-06-24T03:36:26;16.90;99.90
60717;DHT22;46566;52.700;6.192;2023-06-24T03:38:52;16.90;99.90
60717;DHT22;46566;52.700;6.192;2023-06-24T03:41:17;16.80;99.90
60717;DHT22;46566;52.700;6.192;2023-06-24T03:43:44;16.80;99.90
60717;DHT22;46566;52.700;6.192;2023-06-24T03:46:11;16.80;99.90
60717;DHT22;46566;52.700;6.192;2023-06-24T03:48:37;16.70;99.90
60717;DHT22;46566;52.700;6.192;2023-06-24T03:51:03;16.70;99.90
60717;DHT22;46566;52.700;6.192;2023-06-24T03:53:30;16.70;99.90
60717;DHT22;46566;52.700;6.192;2023-06-24T03:55:55;16.60;99.90
60717;DHT22;46566;52.700;6.192;2023-06-24T03:58:21;16.60;99.90
60717;DHT22;46566;52.700;6.192;2023-06-24T04:00:48;16.60;99.90
60717;DHT22;46566;52.700;6.192;2023-06-24T04:03:15;16.50;99.90
60717;DHT22;46566;52.700;6.192;2023-06-24T04:05:44;16.50;99.90
60717;DHT22;46566;52.700;6.192;2023-06-24T04:08:10;16.50;99.90
60717;DHT22;46566;52.700;6.192;2023-06-24T04:10:37;16.50;99.90
60717;DHT22;46566;52.700;6.192;2023-06-24T04:13:03;16.50;99.90
60717;DHT22;46566;52.700;6.192;2023-06-24T04:15:29;16.50;99.90
60717;DHT22;46566;52.700;6.192;2023-06-24T04:17:55;16.60;99.90
60717;DHT22;46566;52.700;6.192;2023-06-24T04:20:20;16.50;99.90
60717;DHT22;46566;52.700;6.192;2023-06-24T04:22:46;16.50;99.90
60717;DHT22;46566;52.700;6.192;2023-06-24T04:25:12;16.50;99.90
60717;DHT22;46566;52.700;6.192;2023-06-24T04:27:37;16.60;99.90
60717;DHT22;46566;52.700;6.192;2023-06-24T04:30:06;16.60;99.90
60717;DHT22;46566;52.700;6.192;2023-06-24T04:32:32;16.60;99.90
60717;DHT22;46566;52.700;6.192;2023-06-24T04:34:59;16.60;99.90
60717;DHT22;46566;52.700;6.192;2023-06-24T04:37:26;16.60;99.90
60717;DHT22;46566;52.700;6.192;2023-06-24T04:39:52;16.60;99.90
60717;DHT22;46566;52.700;6.192;2023-06-24T04:42:18;16.60;99.90
60717;DHT22;46566;52.700;6.192;2023-06-24T04:44:44;16.60;99.90
60717;DHT22;46566;52.700;6.192;2023-06-24T04:47:09;16.60;99.90
60717;DHT22;46566;52.700;6.192;2023-06-24T04:49:35;16.70;99.90
60717;DHT22;46566;52.700;6.192;2023-06-24T04:52:01;16.70;99.90
60717;DHT22;46566;52.700;6.192;2023-06-24T04:56:53;16.70;99.90
60717;DHT22;46566;52.700;6.192;2023-06-24T04:59:21;16.70;99.90
60717;DHT22;46566;52.700;6.192;2023-06-24T05:01:47;16.80;99.90
60717;DHT22;46566;52.700;6.192;2023-06-24T05:04:13;16.80;99.90
60717;DHT22;46566;52.700;6.192;2023-06-24T05:06:38;16.80;99.90
60717;DHT22;46566;52.700;6.192;2023-06-24T05:09:04;16.90;99.90
60717;DHT22;46566;52.700;6.192;2023-06-24T05:11:30;17.00;99.90
60717;DHT22;46566;52.700;6.192;2023-06-24T05:13:56;17.00;99.90
60717;DHT22;46566;52.700;6.192;2023-06-24T05:16:22;17.10;99.90
60717;DHT22;46566;52.700;6.192;2023-06-24T05:18:49;17.20;99.90
60717;DHT22;46566;52.700;6.192;2023-06-24T05:21:15;17.30;99.90
60717;DHT22;46566;52.700;6.192;2023-06-24T05:23:41;17.40;99.90
60717;DHT22;46566;52.700;6.192;2023-06-24T05:26:06;17.60;99.90
60717;DHT22;46566;52.700;6.192;2023-06-24T05:28:32;17.80;99.90
60717;DHT22;46566;52.700;6.192;2023-06-24T05:30:57;18.00;99.90
60717;DHT22;46566;52.700;6.192;2023-06-24T05:33:23;17.80;99.90
60717;DHT22;46566;52.700;6.192;2023-06-24T05:35:49;18.00;99.90
60717;DHT22;46566;52.700;6.192;2023-06-24T05:38:15;18.00;99.90
60717;DHT22;46566;52.700;6.192;2023-06-24T05:40:41;18.10;99.90
60717;DHT22;46566;52.700;6.192;2023-06-24T05:43:06;18.20;99.90
60717;DHT22;46566;52.700;6.192;2023-06-24T05:45:32;18.30;99.90
60717;DHT22;46566;52.700;6.192;2023-06-24T05:47:58;18.30;99.90
60717;DHT22;46566;52.700;6.192;2023-06-24T05:50:23;18.30;99.90
60717;DHT22;46566;52.700;6.192;2023-06-24T05:52:49;18.50;99.90
60717;DHT22;46566;52.700;6.192;2023-06-24T05:55:14;18.50;99.90
60717;DHT22;46566;52.700;6.192;2023-06-24T05:57:40;18.50;99.90
60717;DHT22;46566;52.700;6.192;2023-06-24T06:00:06;18.60;99.90
60717;DHT22;46566;52.700;6.192;2023-06-24T06:02:38;18.70;99.90
60717;DHT22;46566;52.700;6.192;2023-06-24T06:07:30;18.70;99.90
60717;DHT22;46566;52.700;6.192;2023-06-24T06:12:21;18.80;99.90
60717;DHT22;46566;52.700;6.192;2023-06-24T06:14:47;18.90;99.90
60717;DHT22;46566;52.700;6.192;2023-06-24T06:17:14;18.90;99.90
60717;DHT22;46566;52.700;6.192;2023-06-24T06:19:40;19.00;99.90
60717;DHT22;46566;52.700;6.192;2023-06-24T06:22:07;19.00;99.90
60717;DHT22;46566;52.700;6.192;2023-06-24T06:24:33;19.10;99.90
60717;DHT22;46566;52.700;6.192;2023-06-24T06:26:59;19.10;99.90
60717;DHT22;46566;52.700;6.192;2023-06-24T06:29:25;19.20;99.90
60717;DHT22;46566;52.700;6.192;2023-06-24T06:31:51;19.20;99.90
60717;DHT22;46566;52.700;6.192;2023-06-24T06:34:18;19.30;99.90
60717;DHT22;46566;52.700;6.192;2023-06-24T06:36:44;19.40;99.90
60717;DHT22;46566;52.700;6.192;2023-06-24T06:39:09;19.40;99.90
60717;DHT22;46566;52.700;6.192;2023-06-24T06:44:01;19.50;99.90
60717;DHT22;46566;52.700;6.192;2023-06-24T06:48:53;19.70;99.90
60717;DHT22;46566;52.700;6.192;2023-06-24T06:51:19;20.00;99.90
60717;DHT22;46566;52.700;6.192;2023-06-24T06:53:45;20.30;99.90
60717;DHT22;46566;52.700;6.192;2023-06-24T06:56:28;20.50;99.90
60717;DHT22;46566;52.700;6.192;2023-06-24T06:58:54;20.60;99.90
60717;DHT22;46566;52.700;6.192;2023-06-24T07:01:19;20.80;99.90
60717;DHT22;46566;52.700;6.192;2023-06-24T07:03:45;20.90;99.90
60717;DHT22;46566;52.700;6.192;2023-06-24T07:06:11;20.80;99.90
60717;DHT22;46566;52.700;6.192;2023-06-24T07:25:40;20.90;99.90
60717;DHT22;46566;52.700;6.192;2023-06-24T07:28:06;21.90;99.90
60717;DHT22;46566;52.700;6.192;2023-06-24T07:30:31;22.00;99.90
60717;DHT22;46566;52.700;6.192;2023-06-24T07:32:57;22.10;99.90
60717;DHT22;46566;52.700;6.192;2023-06-24T07:59:44;22.10;99.90
60717;DHT22;46566;52.700;6.192;2023-06-24T08:02:10;22.70;99.90
60717;DHT22;46566;52.700;6.192;2023-06-24T08:04:35;22.80;99.90
60717;DHT22;46566;52.700;6.192;2023-06-24T08:11:54;22.90;99.90
60717;DHT22;46566;52.700;6.192;2023-06-24T08:14:20;23.20;99.90
60717;DHT22;46566;52.700;6.192;2023-06-24T08:16:46;23.30;99.90
60717;DHT22;46566;52.700;6.192;2023-06-24T08:19:11;23.50;99.90
60717;DHT22;46566;52.700;6.192;2023-06-24T08:21:37;23.50;99.90
60717;DHT22;46566;52.700;6.192;2023-06-24T08:24:04;23.60;99.90
60717;DHT22;46566;52.700;6.192;2023-06-24T08:31:25;23.60;99.90
60717;DHT22;46566;52.700;6.192;2023-06-24T08:33:54;23.90;99.90
60717;DHT22;46566;52.700;6.192;2023-06-24T08:38:49;24.10;99.90
60717;DHT22;46566;52.700;6.192;2023-06-24T08:43:41;25.10;99.90
60717;DHT22;46566;52.700;6.192;2023-06-24T08:46:08;25.80;99.90
60717;DHT22;46566;52.700;6.192;2023-06-24T08:48:35;26.20;95.40
60717;DHT22;46566;52.700;6.192;2023-06-24T08:51:08;26.80;94.60
60717;DHT22;46566;52.700;6.192;2023-06-24T08:53:35;27.10;88.40
60717;DHT22;46566;52.700;6.192;2023-06-24T08:56:03;27.60;92.90
60717;DHT22;46566;52.700;6.192;2023-06-24T08:58:29;28.10;87.40
60717;DHT22;46566;52.700;6.192;2023-06-24T09:00:56;28.20;83.50
60717;DHT22;46566;52.700;6.192;2023-06-24T09:03:22;28.40;92.30
60717;DHT22;46566;52.700;6.192;2023-06-24T09:08:14;29.00;79.20
60717;DHT22;46566;52.700;6.192;2023-06-24T09:10:41;29.30;85.30
60717;DHT22;46566;52.700;6.192;2023-06-24T09:13:08;29.60;81.10
60717;DHT22;46566;52.700;6.192;2023-06-24T09:15:37;29.90;77.10
60717;DHT22;46566;52.700;6.192;2023-06-24T09:18:04;30.30;92.70
60717;DHT22;46566;52.700;6.192;2023-06-24T09:20:31;30.50;82.30
60717;DHT22;46566;52.700;6.192;2023-06-24T09:23:02;30.40;79.50
60717;DHT22;46566;52.700;6.192;2023-06-24T09:25:28;30.40;74.70
60717;DHT22;46566;52.700;6.192;2023-06-24T09:27:54;30.50;77.10
60717;DHT22;46566;52.700;6.192;2023-06-24T09:30:24;30.50;75.60
60717;DHT22;46566;52.700;6.192;2023-06-24T09:32:50;30.50;79.50
60717;DHT22;46566;52.700;6.192;2023-06-24T09:35:21;30.30;72.70
60717;DHT22;46566;52.700;6.192;2023-06-24T09:37:54;30.40;75.40
60717;DHT22;46566;52.700;6.192;2023-06-24T09:40:21;30.60;76.60
60717;DHT22;46566;52.700;6.192;2023-06-24T09:42:52;30.50;69.00
60717;DHT22;46566;52.700;6.192;2023-06-24T09:45:36;30.70;71.80
60717;DHT22;46566;52.700;6.192;2023-06-24T09:48:01;30.70;71.40
60717;DHT22;46566;52.700;6.192;2023-06-24T09:50:27;31.10;71.60
60717;DHT22;46566;52.700;6.192;2023-06-24T09:52:55;31.50;71.50
60717;DHT22;46566;52.700;6.192;2023-06-24T09:55:22;31.80;71.70
60717;DHT22;46566;52.700;6.192;2023-06-24T09:57:50;32.00;70.90
60717;DHT22;46566;52.700;6.192;2023-06-24T10:03:35;32.60;67.60
60717;DHT22;46566;52.700;6.192;2023-06-24T10:06:19;32.80;67.80
60717;DHT22;46566;52.700;6.192;2023-06-24T10:08:45;32.70;67.50
60717;DHT22;46566;52.700;6.192;2023-06-24T10:11:11;32.70;66.40
60717;DHT22;46566;52.700;6.192;2023-06-24T10:13:36;32.50;65.60
60717;DHT22;46566;52.700;6.192;2023-06-24T10:18:46;32.10;65.30
60717;DHT22;46566;52.700;6.192;2023-06-24T10:24:37;32.10;62.60
60717;DHT22;46566;52.700;6.192;2023-06-24T10:27:09;32.00;65.80
60717;DHT22;46566;52.700;6.192;2023-06-24T10:30:03;32.00;66.20
60717;DHT22;46566;52.700;6.192;2023-06-24T10:38:10;32.00;64.70
60717;DHT22;46566;52.700;6.192;2023-06-24T10:40:41;31.90;63.70
60717;DHT22;46566;52.700;6.192;2023-06-24T10:43:32;31.90;61.90
60717;DHT22;46566;52.700;6.192;2023-06-24T10:45:58;31.90;63.00
60717;DHT22;46566;52.700;6.192;2023-06-24T10:48:24;31.80;60.80
60717;DHT22;46566;52.700;6.192;2023-06-24T10:59:47;31.60;63.00
60717;DHT22;46566;52.700;6.192;2023-06-24T11:02:39;31.70;64.80
60717;DHT22;46566;52.700;6.192;2023-06-24T11:05:06;31.80;63.90
60717;DHT22;46566;52.700;6.192;2023-06-24T11:10:27;31.90;64.40
60717;DHT22;46566;52.700;6.192;2023-06-24T11:12:53;32.00;66.20
60717;DHT22;46566;52.700;6.192;2023-06-24T11:15:19;32.10;64.00
60717;DHT22;46566;52.700;6.192;2023-06-24T11:17:45;32.20;61.80
60717;DHT22;46566;52.700;6.192;2023-06-24T11:23:09;32.10;62.90
60717;DHT22;46566;52.700;6.192;2023-06-24T11:37:47;31.40;64.50
60717;DHT22;46566;52.700;6.192;2023-06-24T11:40:16;31.40;63.50
60717;DHT22;46566;52.700;6.192;2023-06-24T11:42:42;31.50;63.30
60717;DHT22;46566;52.700;6.192;2023-06-24T11:45:39;31.20;60.90
60717;DHT22;46566;52.700;6.192;2023-06-24T11:51:12;31.30;63.30
60717;DHT22;46566;52.700;6.192;2023-06-24T11:53:44;31.50;63.30
60717;DHT22;46566;52.700;6.192;2023-06-24T11:56:11;31.60;62.70
60717;DHT22;46566;52.700;6.192;2023-06-24T12:14:05;31.40;61.70
60717;DHT22;46566;52.700;6.192;2023-06-24T12:19:28;31.10;62.60
60717;DHT22;46566;52.700;6.192;2023-06-24T12:21:54;31.00;62.00
60717;DHT22;46566;52.700;6.192;2023-06-24T12:24:19;30.90;63.20
60717;DHT22;46566;52.700;6.192;2023-06-24T12:29:36;30.70;63.80
60717;DHT22;46566;52.700;6.192;2023-06-24T12:32:02;30.70;65.30
60717;DHT22;46566;52.700;6.192;2023-06-24T12:34:28;30.70;61.90
60717;DHT22;46566;52.700;6.192;2023-06-24T12:37:19;30.30;60.80
60717;DHT22;46566;52.700;6.192;2023-06-24T12:39:45;30.20;63.50
60717;DHT22;46566;52.700;6.192;2023-06-24T12:42:11;30.40;63.90
60717;DHT22;46566;52.700;6.192;2023-06-24T12:44:36;30.70;63.70
60717;DHT22;46566;52.700;6.192;2023-06-24T12:49:53;31.00;62.10
60717;DHT22;46566;52.700;6.192;2023-06-24T12:52:19;31.30;61.50
60717;DHT22;46566;52.700;6.192;2023-06-24T12:54:44;31.50;61.80
60717;DHT22;46566;52.700;6.192;2023-06-24T12:57:36;31.70;59.90
60717;DHT22;46566;52.700;6.192;2023-06-24T13:03:29;32.00;59.90
60717;DHT22;46566;52.700;6.192;2023-06-24T13:14:36;32.40;59.40
60717;DHT22;46566;52.700;6.192;2023-06-24T13:20:05;32.30;57.80
60717;DHT22;46566;52.700;6.192;2023-06-24T13:22:31;32.30;57.80
60717;DHT22;46566;52.700;6.192;2023-06-24T13:24:57;32.20;56.70
60717;DHT22;46566;52.700;6.192;2023-06-24T13:27:23;32.30;58.20
60717;DHT22;46566;52.700;6.192;2023-06-24T13:32:41;32.50;57.40
60717;DHT22;46566;52.700;6.192;2023-06-24T13:35:07;32.40;59.00
60717;DHT22;46566;52.700;6.192;2023-06-24T13:37:32;32.40;59.10
60717;DHT22;46566;52.700;6.192;2023-06-24T13:40:24;32.50;60.20
60717;DHT22;46566;52.700;6.192;2023-06-24T13:42:50;32.40;58.70
60717;DHT22;46566;52.700;6.192;2023-06-24T13:45:16;32.50;57.00
60717;DHT22;46566;52.700;6.192;2023-06-24T13:47:41;32.50;57.20
60717;DHT22;46566;52.700;6.192;2023-06-24T14:02:08;32.40;57.20
60717;DHT22;46566;52.700;6.192;2023-06-24T14:04:35;32.30;57.60
60717;DHT22;46566;52.700;6.192;2023-06-24T14:12:53;32.40;58.30
60717;DHT22;46566;52.700;6.192;2023-06-24T14:15:18;32.40;57.60
60717;DHT22;46566;52.700;6.192;2023-06-24T14:21:06;32.30;57.40
60717;DHT22;46566;52.700;6.192;2023-06-24T14:32:40;31.90;57.70
60717;DHT22;46566;52.700;6.192;2023-06-24T14:38:01;32.00;55.50
60717;DHT22;46566;52.700;6.192;2023-06-24T14:40:27;31.90;56.80
60717;DHT22;46566;52.700;6.192;2023-06-24T14:42:53;32.00;57.00
60717;DHT22;46566;52.700;6.192;2023-06-24T14:45:44;32.10;56.20
60717;DHT22;46566;52.700;6.192;2023-06-24T14:48:09;32.30;57.00
60717;DHT22;46566;52.700;6.192;2023-06-24T14:50:35;32.40;57.50
60717;DHT22;46566;52.700;6.192;2023-06-24T14:53:01;32.50;58.80
60717;DHT22;46566;52.700;6.192;2023-06-24T14:55:39;32.40;58.30
60717;DHT22;46566;52.700;6.192;2023-06-24T14:58:05;32.50;59.30
60717;DHT22;46566;52.700;6.192;2023-06-24T15:00:31;32.40;59.20
60717;DHT22;46566;52.700;6.192;2023-06-24T15:02:56;32.30;58.60
60717;DHT22;46566;52.700;6.192;2023-06-24T15:05:22;32.20;59.20
60717;DHT22;46566;52.700;6.192;2023-06-24T15:08:13;32.10;60.00
60717;DHT22;46566;52.700;6.192;2023-06-24T15:10:38;32.10;59.30
60717;DHT22;46566;52.700;6.192;2023-06-24T15:13:04;32.20;58.50
60717;DHT22;46566;52.700;6.192;2023-06-24T15:15:31;32.20;58.20
60717;DHT22;46566;52.700;6.192;2023-06-24T15:29:43;31.70;62.50
60717;DHT22;46566;52.700;6.192;2023-06-24T15:32:32;31.60;62.30
60717;DHT22;46566;52.700;6.192;2023-06-24T15:34:57;31.40;62.40
60717;DHT22;46566;52.700;6.192;2023-06-24T15:39:49;31.20;62.70
60717;DHT22;46566;52.700;6.192;2023-06-24T15:45:11;31.10;63.70
60717;DHT22;46566;52.700;6.192;2023-06-24T15:47:39;31.10;63.70
60717;DHT22;46566;52.700;6.192;2023-06-24T15:52:57;31.10;63.80
60717;DHT22;46566;52.700;6.192;2023-06-24T15:55:23;31.20;63.80
60717;DHT22;46566;52.700;6.192;2023-06-24T15:57:49;31.10;63.60
60717;DHT22;46566;52.700;6.192;2023-06-24T16:03:03;30.80;63.20
60717;DHT22;46566;52.700;6.192;2023-06-24T16:05:29;30.60;64.00
60717;DHT22;46566;52.700;6.192;2023-06-24T16:18:04;30.40;64.70
60717;DHT22;46566;52.700;6.192;2023-06-24T16:23:27;30.20;64.80
60717;DHT22;46566;52.700;6.192;2023-06-24T16:25:52;30.10;65.20
60717;DHT22;46566;52.700;6.192;2023-06-24T16:31:16;30.00;65.70
60717;DHT22;46566;52.700;6.192;2023-06-24T16:33:42;29.90;65.60
60717;DHT22;46566;52.700;6.192;2023-06-24T16:36:08;29.80;65.50
60717;DHT22;46566;52.700;6.192;2023-06-24T16:41:30;29.70;65.40
60717;DHT22;46566;52.700;6.192;2023-06-24T16:43:55;29.60;65.30
60717;DHT22;46566;52.700;6.192;2023-06-24T16:49:24;29.60;64.90
60717;DHT22;46566;52.700;6.192;2023-06-24T16:51:50;29.70;65.50
60717;DHT22;46566;52.700;6.192;2023-06-24T16:57:34;29.60;65.90
60717;DHT22;46566;52.700;6.192;2023-06-24T17:03:11;29.60;66.70
60717;DHT22;46566;52.700;6.192;2023-06-24T17:08:48;29.50;66.60
60717;DHT22;46566;52.700;6.192;2023-06-24T17:11:39;29.40;66.90
60717;DHT22;46566;52.700;6.192;2023-06-24T17:14:05;29.30;67.00
60717;DHT22;46566;52.700;6.192;2023-06-24T17:16:31;29.30;67.10
60717;DHT22;46566;52.700;6.192;2023-06-24T17:18:57;29.40;67.70
60717;DHT22;46566;52.700;6.192;2023-06-24T17:24:34;29.30;66.80
60717;DHT22;46566;52.700;6.192;2023-06-24T17:30:05;29.30;66.50
60717;DHT22;46566;52.700;6.192;2023-06-24T17:35:59;29.30;66.40
60717;DHT22;46566;52.700;6.192;2023-06-24T17:38:25;29.30;66.30
60717;DHT22;46566;52.700;6.192;2023-06-24T17:40:51;29.20;66.70
60717;DHT22;46566;52.700;6.192;2023-06-24T17:43:42;29.20;66.60
60717;DHT22;46566;52.700;6.192;2023-06-24T17:46:08;29.10;66.30
60717;DHT22;46566;52.700;6.192;2023-06-24T17:51:36;29.00;67.00
60717;DHT22;46566;52.700;6.192;2023-06-24T17:54:02;29.00;67.30
60717;DHT22;46566;52.700;6.192;2023-06-24T17:56:28;29.00;66.70
60717;DHT22;46566;52.700;6.192;2023-06-24T17:58:54;29.00;66.70
60717;DHT22;46566;52.700;6.192;2023-06-24T18:01:45;28.90;66.80
60717;DHT22;46566;52.700;6.192;2023-06-24T18:04:11;28.90;67.40
60717;DHT22;46566;52.700;6.192;2023-06-24T18:09:39;28.80;66.90
60717;DHT22;46566;52.700;6.192;2023-06-24T18:12:05;28.80;67.00
60717;DHT22;46566;52.700;6.192;2023-06-24T18:14:31;28.70;66.90
60717;DHT22;46566;52.700;6.192;2023-06-24T18:16:57;28.60;66.60
60717;DHT22;46566;52.700;6.192;2023-06-24T18:19:48;28.40;66.80
60717;DHT22;46566;52.700;6.192;2023-06-24T18:22:14;28.40;66.90
60717;DHT22;46566;52.700;6.192;2023-06-24T18:31:30;28.20;67.70
60717;DHT22;46566;52.700;6.192;2023-06-24T18:37:04;28.20;68.30
60717;DHT22;46566;52.700;6.192;2023-06-24T18:42:33;28.00;68.70
60717;DHT22;46566;52.700;6.192;2023-06-24T18:57:20;27.70;70.50
60717;DHT22;46566;52.700;6.192;2023-06-24T19:02:49;27.60;71.30
60717;DHT22;46566;52.700;6.192;2023-06-24T19:05:15;27.50;71.50
60717;DHT22;46566;52.700;6.192;2023-06-24T19:10:45;27.40;71.80
60717;DHT22;46566;52.700;6.192;2023-06-24T19:13:11;27.40;72.10
60717;DHT22;46566;52.700;6.192;2023-06-24T19:16:02;27.30;72.40
60717;DHT22;46566;52.700;6.192;2023-06-24T19:18:28;27.30;72.70
60717;DHT22;46566;52.700;6.192;2023-06-24T19:20:54;27.20;72.80
60717;DHT22;46566;52.700;6.192;2023-06-24T19:23:19;27.20;73.20
60717;DHT22;46566;52.700;6.192;2023-06-24T19:28:30;27.00;74.00
60717;DHT22;46566;52.700;6.192;2023-06-24T19:30:55;26.80;75.10
60717;DHT22;46566;52.700;6.192;2023-06-24T19:45:47;26.10;82.40
60717;DHT22;46566;52.700;6.192;2023-06-24T19:48:38;26.00;84.20
60717;DHT22;46566;52.700;6.192;2023-06-24T19:51:04;25.80;86.80
60717;DHT22;46566;52.700;6.192;2023-06-24T19:53:30;25.70;88.30
60717;DHT22;46566;52.700;6.192;2023-06-24T19:55:55;25.70;89.80
60717;DHT22;46566;52.700;6.192;2023-06-24T20:16:12;25.20;96.00
60717;DHT22;46566;52.700;6.192;2023-06-24T20:18:38;25.10;97.20
60717;DHT22;46566;52.700;6.192;2023-06-24T20:21:04;25.00;98.70
60717;DHT22;46566;52.700;6.192;2023-06-24T20:23:30;24.90;99.80
60717;DHT22;46566;52.700;6.192;2023-06-24T20:25:55;24.80;99.90
60717;DHT22;46566;52.700;6.192;2023-06-24T20:28:21;24.70;99.90
60717;DHT22;46566;52.700;6.192;2023-06-24T20:30:46;24.60;99.90
60717;DHT22;46566;52.700;6.192;2023-06-24T20:33:12;24.60;99.90
60717;DHT22;46566;52.700;6.192;2023-06-24T20:35:38;24.50;99.90
60717;DHT22;46566;52.700;6.192;2023-06-24T20:38:04;24.40;99.90
60717;DHT22;46566;52.700;6.192;2023-06-24T20:40:29;24.40;99.90
60717;DHT22;46566;52.700;6.192;2023-06-24T20:42:56;24.30;99.90
60717;DHT22;46566;52.700;6.192;2023-06-24T20:45:23;24.30;99.90
60717;DHT22;46566;52.700;6.192;2023-06-24T20:47:48;24.30;99.90
60717;DHT22;46566;52.700;6.192;2023-06-24T20:50:14;24.30;99.90
60717;DHT22;46566;52.700;6.192;2023-06-24T20:52:39;24.20;99.90
60717;DHT22;46566;52.700;6.192;2023-06-24T20:55:06;24.20;99.90
60717;DHT22;46566;52.700;6.192;2023-06-24T20:57:32;24.10;99.90
60717;DHT22;46566;52.700;6.192;2023-06-24T20:59:58;24.00;99.90
60717;DHT22;46566;52.700;6.192;2023-06-24T21:02:24;23.90;99.90
60717;DHT22;46566;52.700;6.192;2023-06-24T21:04:49;23.90;99.90
60717;DHT22;46566;52.700;6.192;2023-06-24T21:07:15;23.90;99.90